createdAt,value
2023-04-19T00:00:09.758Z,1.90
2023-04-19T00:02:38.232Z,1.27
2023-04-19T00:05:06.928Z,1.65
2023-04-19T00:07:34.198Z,1.90
2023-04-19T00:10:01.082Z,0.57
2023-04-19T00:12:27.850Z,2.50
2023-04-19T00:14:54.776Z,1.25
2023-04-19T00:17:21.702Z,1.25
2023-04-19T00:19:48.579Z,1.90
2023-04-19T00:22:15.775Z,1.17
2023-04-19T00:24:42.553Z,2.28
2023-04-19T00:27:09.296Z,2.00
2023-04-19T00:29:36.682Z,1.30
2023-04-19T00:32:06.354Z,3.92
2023-04-19T00:34:33.673Z,2.88
2023-04-19T00:37:00.921Z,1.40
2023-04-19T00:39:28.319Z,3.35
2023-04-19T00:41:57.982Z,3.03
2023-04-19T00:44:25.982Z,3.65
2023-04-19T00:46:54.160Z,3.58
2023-04-19T00:49:23.429Z,2.45
2023-04-19T00:51:53.847Z,4.45
2023-04-19T00:54:21.058Z,2.45
2023-04-19T00:56:48.119Z,2.72
2023-04-19T00:59:16.362Z,2.75
2023-04-19T01:01:44.176Z,3.90
2023-04-19T01:04:11.707Z,2.53
2023-04-19T01:06:47.492Z,3.28
2023-04-19T01:09:14.694Z,2.40
2023-04-19T01:11:43.434Z,2.42
2023-04-19T01:14:11.251Z,3.13
2023-04-19T01:16:39.452Z,3.70
2023-04-19T01:19:07.038Z,4.47
2023-04-19T01:21:34.429Z,4.45
2023-04-19T01:24:01.799Z,4.20
2023-04-19T01:26:29.599Z,4.05
2023-04-19T01:28:56.660Z,2.05
2023-04-19T01:31:24.102Z,3.20
2023-04-19T01:33:50.892Z,2.17
2023-04-19T01:36:18.435Z,3.88
2023-04-19T01:38:51.219Z,2.47
2023-04-19T01:41:18.891Z,2.90
2023-04-19T01:43:49.365Z,2.67
2023-04-19T01:46:16.554Z,3.22
2023-04-19T01:48:43.915Z,2.33
2023-04-19T01:51:11.142Z,6.30
2023-04-19T01:53:38.400Z,2.72
2023-04-19T01:56:06.511Z,3.47
2023-04-19T01:58:33.781Z,2.03
2023-04-19T02:01:01.136Z,3.38
2023-04-19T02:03:29.237Z,2.35
2023-04-19T02:05:57.712Z,2.70
2023-04-19T02:08:27.951Z,3.58
2023-04-19T02:10:55.552Z,4.35
2023-04-19T02:13:22.984Z,1.77
2023-04-19T02:15:51.151Z,2.22
2023-04-19T02:18:18.770Z,2.88
2023-04-19T02:20:47.132Z,2.20
2023-04-19T02:23:14.515Z,1.80
2023-04-19T02:25:42.426Z,3.42
2023-04-19T02:28:11.313Z,3.50
2023-04-19T02:30:38.494Z,2.08
2023-04-19T02:33:06.264Z,2.67
2023-04-19T02:35:34.186Z,3.17
2023-04-19T02:40:29.647Z,3.55
2023-04-19T02:42:58.645Z,4.07
2023-04-19T02:51:09.044Z,3.05
2023-04-19T02:53:36.908Z,5.00
2023-04-19T02:56:07.826Z,3.72
2023-04-19T02:59:05.635Z,4.10
2023-04-19T03:01:40.233Z,3.25
2023-04-19T03:04:15.037Z,3.53
2023-04-19T03:06:51.918Z,3.70
2023-04-19T03:09:22.826Z,2.83
2023-04-19T03:11:55.056Z,1.83
2023-04-19T03:14:24.545Z,1.90
2023-04-19T03:16:52.636Z,2.17
2023-04-19T03:21:50.856Z,2.75
2023-04-19T03:24:29.315Z,2.38
2023-04-19T03:27:05.928Z,2.63
2023-04-19T03:29:33.642Z,4.40
2023-04-19T03:32:01.472Z,7.82
2023-04-19T03:34:28.122Z,4.85
2023-04-19T03:36:58.213Z,4.65
2023-04-19T03:39:24.915Z,5.38
2023-04-19T03:41:51.650Z,5.70
2023-04-19T03:44:18.557Z,9.52
2023-04-19T03:46:46.711Z,14.00
2023-04-19T03:49:13.702Z,14.35
2023-04-19T03:51:44.397Z,11.48
2023-04-19T03:54:21.334Z,7.80
2023-04-19T04:00:00.185Z,6.28
2023-04-19T04:03:54.771Z,5.70
2023-04-19T04:08:18.117Z,4.95
2023-04-19T04:10:49.037Z,7.53
2023-04-19T04:13:26.803Z,7.05
2023-04-19T04:22:11.744Z,17.00
2023-04-19T04:24:42.055Z,24.33
2023-04-19T04:27:23.625Z,25.23
2023-04-19T04:30:08.142Z,18.20
2023-04-19T04:32:59.042Z,15.43
2023-04-19T04:35:30.134Z,12.43
2023-04-19T04:37:56.956Z,14.48
2023-04-19T04:40:23.903Z,11.55
2023-04-19T04:42:53.144Z,13.07
2023-04-19T04:45:20.089Z,7.47
2023-04-19T04:47:46.974Z,9.15
2023-04-19T04:50:13.761Z,8.48
2023-04-19T04:52:40.918Z,5.93
2023-04-19T04:55:08.505Z,6.53
2023-04-19T04:57:35.626Z,6.60
2023-04-19T05:00:03.077Z,9.32
2023-04-19T05:02:30.536Z,10.00
2023-04-19T05:04:57.843Z,8.05
2023-04-19T05:07:24.692Z,5.82
2023-04-19T05:09:52.198Z,4.88
2023-04-19T05:12:22.135Z,4.25
2023-04-19T05:14:49.735Z,3.80
2023-04-19T05:17:17.937Z,3.50
2023-04-19T05:19:45.572Z,4.28
2023-04-19T05:22:13.248Z,3.85
2023-04-19T05:24:42.410Z,6.43
2023-04-19T05:27:13.313Z,6.90
2023-04-19T05:29:40.660Z,6.30
2023-04-19T05:32:08.644Z,6.10
2023-04-19T05:37:04.318Z,8.07
2023-04-19T05:39:31.443Z,11.63
2023-04-19T05:41:58.867Z,9.07
2023-04-19T05:44:26.203Z,11.10
2023-04-19T05:46:56.519Z,10.68
2023-04-19T05:49:24.022Z,7.20
2023-04-19T05:51:51.652Z,8.35
2023-04-19T05:54:19.658Z,7.20
2023-04-19T05:56:47.102Z,4.93
2023-04-19T05:59:14.913Z,5.53
2023-04-19T06:04:09.799Z,5.05
2023-04-19T06:06:38.677Z,8.18
2023-04-19T06:09:13.586Z,10.02
2023-04-19T06:11:49.961Z,8.05
2023-04-19T06:16:47.049Z,11.05
2023-04-19T06:19:14.891Z,10.88
2023-04-19T06:21:42.126Z,8.70
2023-04-19T06:24:13.105Z,3.85
2023-04-19T06:26:41.250Z,5.47
2023-04-19T06:31:36.160Z,5.30
2023-04-19T06:34:03.337Z,3.85
2023-04-19T06:36:31.368Z,4.93
2023-04-19T06:41:26.544Z,1.73
2023-04-19T06:43:53.851Z,3.72
2023-04-19T06:46:21.680Z,3.28
2023-04-19T06:51:16.395Z,5.55
2023-04-19T06:53:45.319Z,8.63
2023-04-19T06:56:13.977Z,9.73
2023-04-19T06:58:41.950Z,7.47
2023-04-19T07:03:37.284Z,6.30
2023-04-19T07:08:46.302Z,5.18
2023-04-19T07:11:16.078Z,7.03
2023-04-19T07:13:43.061Z,7.67
2023-04-19T07:16:09.793Z,9.07
2023-04-19T07:18:37.623Z,7.07
2023-04-19T07:21:04.903Z,6.00
2023-04-19T07:23:33.359Z,8.45
2023-04-19T07:26:00.621Z,5.65
2023-04-19T07:28:30.300Z,3.50
2023-04-19T07:30:58.211Z,6.28
2023-04-19T07:35:57.301Z,4.35
2023-04-19T07:38:26.056Z,5.97
2023-04-19T07:40:55.036Z,4.72
2023-04-19T07:43:23.017Z,5.82
2023-04-19T07:45:51.091Z,4.88
2023-04-19T07:48:18.660Z,4.03
2023-04-19T07:50:46.066Z,4.65
2023-04-19T07:53:13.197Z,5.25
2023-04-19T07:55:40.548Z,2.72
2023-04-19T07:58:08.133Z,6.10
2023-04-19T08:00:37.123Z,5.80
2023-04-19T08:03:05.079Z,5.50
2023-04-19T08:05:36.696Z,7.72
2023-04-19T08:08:06.598Z,10.20
2023-04-19T08:10:37.245Z,6.20
2023-04-19T08:13:06.592Z,4.28
2023-04-19T08:18:08.698Z,7.03
2023-04-19T08:20:37.115Z,5.45
2023-04-19T08:23:18.069Z,4.15
2023-04-19T08:25:49.088Z,5.53
2023-04-19T08:28:17.462Z,4.25
2023-04-19T08:30:44.928Z,9.60
2023-04-19T08:33:12.432Z,9.20
2023-04-19T08:35:43.202Z,6.95
2023-04-19T08:38:16.783Z,5.70
2023-04-19T08:40:55.278Z,6.70
2023-04-19T08:43:24.934Z,7.03
2023-04-19T08:45:54.906Z,7.90
2023-04-19T08:48:24.103Z,7.35
2023-04-19T08:51:07.808Z,4.95
2023-04-19T08:53:36.740Z,6.53
2023-04-19T08:56:17.381Z,7.50
2023-04-19T09:01:33.072Z,6.80
2023-04-19T09:04:34.464Z,7.68
2023-04-19T09:06:59.720Z,8.85
2023-04-19T09:09:37.218Z,8.00
2023-04-19T09:12:20.681Z,7.75
2023-04-19T09:17:18.171Z,12.20
2023-04-19T09:19:52.667Z,12.18
2023-04-19T09:22:19.845Z,10.90
2023-04-19T09:27:26.709Z,10.73
2023-04-19T09:29:58.974Z,8.38
2023-04-19T09:32:31.395Z,8.88
2023-04-19T09:35:07.978Z,9.70
2023-04-19T09:37:57.452Z,8.30
2023-04-19T09:40:25.282Z,10.68
2023-04-19T09:45:30.578Z,9.52
2023-04-19T09:48:03.947Z,14.13
2023-04-19T09:50:50.314Z,10.55
2023-04-19T09:53:23.183Z,7.30
2023-04-19T09:56:00.195Z,6.43
2023-04-19T09:58:34.380Z,9.52
2023-04-19T10:01:16.318Z,6.30
2023-04-19T10:03:51.283Z,7.43
2023-04-19T10:09:03.828Z,8.15
2023-04-19T10:11:39.277Z,6.72
2023-04-19T10:14:09.101Z,9.18
2023-04-19T10:16:41.342Z,5.55
2023-04-19T10:19:15.878Z,6.30
2023-04-19T10:21:48.316Z,7.82
2023-04-19T10:24:35.519Z,6.50
2023-04-19T10:27:08.671Z,9.93
2023-04-19T10:30:01.454Z,7.03
2023-04-19T10:32:42.693Z,8.45
2023-04-19T10:35:21.290Z,6.43
2023-04-19T10:38:21.801Z,8.45
2023-04-19T10:40:52.318Z,4.18
2023-04-19T10:43:21.779Z,5.45
2023-04-19T10:45:49.375Z,4.90
2023-04-19T10:48:33.665Z,5.53
2023-04-19T10:51:15.117Z,5.97
2023-04-19T10:53:56.037Z,11.45
2023-04-19T10:57:00.826Z,15.85
2023-04-19T10:59:30.551Z,12.50
2023-04-19T11:02:19.258Z,10.75
2023-04-19T11:04:50.078Z,10.98
2023-04-19T11:07:25.414Z,8.50
2023-04-19T11:10:15.919Z,9.10
2023-04-19T11:12:44.458Z,11.45
2023-04-19T11:15:12.498Z,9.10
2023-04-19T11:17:40.217Z,10.27
2023-04-19T11:22:41.216Z,7.32
2023-04-19T11:25:22.245Z,5.95
2023-04-19T11:27:51.348Z,8.70
2023-04-19T11:30:23.429Z,5.32
2023-04-19T11:32:53.822Z,4.95
2023-04-19T11:35:23.654Z,4.07
2023-04-19T11:37:51.698Z,4.63
2023-04-19T11:40:23.231Z,7.47
2023-04-19T11:43:02.962Z,5.50
2023-04-19T11:45:39.952Z,4.72
2023-04-19T11:48:16.130Z,4.35
2023-04-19T11:50:47.838Z,4.47
2023-04-19T11:53:22.532Z,3.72
2023-04-19T11:56:19.537Z,4.30
2023-04-19T12:02:12.511Z,3.58
2023-04-19T12:04:47.801Z,2.72
2023-04-19T12:07:20.269Z,6.63
2023-04-19T12:09:51.781Z,5.30
2023-04-19T12:12:34.878Z,4.20
2023-04-19T12:15:02.694Z,3.55
2023-04-19T12:20:42.047Z,3.70
2023-04-19T12:23:11.632Z,5.85
2023-04-19T12:25:41.568Z,5.88
2023-04-19T12:28:09.738Z,5.13
2023-04-19T12:33:08.255Z,4.18
2023-04-19T12:35:36.627Z,6.53
2023-04-19T12:38:04.082Z,6.75
2023-04-19T12:40:31.347Z,4.68
2023-04-19T12:43:01.398Z,8.30
2023-04-19T12:45:28.872Z,5.00
2023-04-19T12:48:00.922Z,4.03
2023-04-19T12:50:28.086Z,3.65
2023-04-19T12:52:54.981Z,4.47
2023-04-19T12:55:22.567Z,4.28
2023-04-19T12:57:49.657Z,2.85
2023-04-19T13:00:17.752Z,4.63
2023-04-19T13:02:49.307Z,3.13
2023-04-19T13:05:17.012Z,4.95
2023-04-19T13:07:48.123Z,3.67
2023-04-19T13:10:14.965Z,3.50
2023-04-19T13:12:47.884Z,5.38
2023-04-19T13:15:22.378Z,4.90
2023-04-19T13:17:49.977Z,6.57
2023-04-19T13:20:22.220Z,4.70
2023-04-19T13:22:49.359Z,4.60
2023-04-19T13:25:16.117Z,4.85
2023-04-19T13:27:43.425Z,3.97
2023-04-19T13:30:11.267Z,6.43
2023-04-19T13:37:37.823Z,4.45
2023-04-19T13:40:19.472Z,7.95
2023-04-19T13:42:58.126Z,5.55
2023-04-19T13:45:29.776Z,5.03
2023-04-19T13:47:57.004Z,4.90
2023-04-19T13:50:23.988Z,8.25
2023-04-19T13:52:50.919Z,5.87
2023-04-19T13:55:21.502Z,9.20
2023-04-19T13:57:49.159Z,9.43
2023-04-19T14:02:46.255Z,10.43
2023-04-19T14:05:18.110Z,12.35
2023-04-19T14:07:52.097Z,8.30
2023-04-19T14:10:20.317Z,17.27
2023-04-19T14:12:49.972Z,5.03
2023-04-19T14:15:24.236Z,5.28
2023-04-19T14:17:52.581Z,5.25
2023-04-19T14:20:27.962Z,12.73
2023-04-19T14:22:56.902Z,23.80
2023-04-19T14:25:23.957Z,12.15
2023-04-19T14:27:51.734Z,9.90
2023-04-19T14:30:19.205Z,7.78
2023-04-19T14:32:56.615Z,4.47
2023-04-19T14:37:50.600Z,6.97
2023-04-19T14:40:20.916Z,6.13
2023-04-19T14:42:49.100Z,5.78
2023-04-19T14:45:16.565Z,2.83
2023-04-19T14:47:49.916Z,5.30
2023-04-19T14:53:13.584Z,4.20
2023-04-19T14:58:29.957Z,4.10
2023-04-19T15:01:01.368Z,4.55
2023-04-19T15:03:29.649Z,9.52
2023-04-19T15:05:57.578Z,6.75
2023-04-19T15:08:30.786Z,3.85
2023-04-19T15:10:58.122Z,2.90
2023-04-19T15:13:37.976Z,4.72
2023-04-19T15:16:09.337Z,2.78
2023-04-19T15:18:40.306Z,4.55
2023-04-19T15:21:09.522Z,3.65
2023-04-19T15:23:36.966Z,3.63
2023-04-19T15:26:07.854Z,3.67
2023-04-19T15:28:39.054Z,3.35
2023-04-19T15:31:08.219Z,3.42
2023-04-19T15:33:36.873Z,5.22
2023-04-19T15:36:04.851Z,4.63
2023-04-19T15:41:02.630Z,2.63
2023-04-19T15:43:30.109Z,4.57
2023-04-19T15:46:07.273Z,6.35
2023-04-19T15:48:48.018Z,4.53
2023-04-19T15:51:34.630Z,6.57
2023-04-19T15:54:01.985Z,5.18
2023-04-19T15:56:29.195Z,4.60
2023-04-19T15:58:56.518Z,7.18
2023-04-19T16:01:24.247Z,5.35
2023-04-19T16:03:53.160Z,5.55
2023-04-19T16:06:24.125Z,5.57
2023-04-19T16:08:54.150Z,4.18
2023-04-19T16:11:21.568Z,5.13
2023-04-19T16:16:43.915Z,3.50
2023-04-19T16:19:11.272Z,5.32
2023-04-19T16:21:40.996Z,5.63
2023-04-19T16:24:08.579Z,4.47
2023-04-19T16:26:35.655Z,5.78
2023-04-19T16:29:03.552Z,6.38
2023-04-19T16:34:12.320Z,9.57
2023-04-19T16:36:40.812Z,16.63
2023-04-19T16:39:08.530Z,23.73
2023-04-19T16:44:04.918Z,5.28
2023-04-19T16:46:32.589Z,7.13
2023-04-19T16:49:00.268Z,4.18
2023-04-19T16:51:30.238Z,7.50
2023-04-19T16:53:57.848Z,5.97
2023-04-19T16:56:25.156Z,6.57
2023-04-19T16:58:56.275Z,4.75
2023-04-19T17:01:24.220Z,4.20
2023-04-19T17:06:18.536Z,5.72
2023-04-19T17:08:45.686Z,4.40
2023-04-19T17:11:12.726Z,7.88
2023-04-19T17:13:40.575Z,6.82
2023-04-19T17:16:08.296Z,5.22
2023-04-19T17:18:35.559Z,7.13
2023-04-19T17:21:06.765Z,5.65
2023-04-19T17:23:34.674Z,5.35
2023-04-19T17:28:28.564Z,4.47
2023-04-19T17:30:55.658Z,6.28
2023-04-19T17:33:23.061Z,5.65
2023-04-19T17:35:51.241Z,7.32
2023-04-19T17:38:20.108Z,8.35
2023-04-19T17:40:47.773Z,7.57
2023-04-19T17:43:20.723Z,8.98
2023-04-19T17:45:48.129Z,6.97
2023-04-19T17:48:15.406Z,8.85
2023-04-19T17:50:42.581Z,10.52
2023-04-19T17:53:09.926Z,11.23
2023-04-19T17:55:40.216Z,11.88
2023-04-19T17:58:07.905Z,11.90
2023-04-19T18:00:45.620Z,10.13
2023-04-19T18:03:16.670Z,16.83
2023-04-19T18:05:44.259Z,11.10
2023-04-19T18:08:13.640Z,9.38
2023-04-19T18:10:41.017Z,9.98
2023-04-19T18:13:11.035Z,12.65
2023-04-19T18:15:38.084Z,12.95
2023-04-19T18:18:08.443Z,12.97
2023-04-19T18:20:35.869Z,11.80
2023-04-19T18:23:03.804Z,13.30
2023-04-19T18:25:53.613Z,12.45
2023-04-19T18:28:37.004Z,12.85
2023-04-19T18:31:23.130Z,13.23
2023-04-19T18:33:53.761Z,15.48
2023-04-19T18:36:29.414Z,15.35
2023-04-19T18:38:59.036Z,12.65
2023-04-19T18:42:01.387Z,11.43
2023-04-19T18:44:52.872Z,12.65
2023-04-19T18:47:44.679Z,10.95
2023-04-19T18:53:36.771Z,18.17
2023-04-19T18:57:18.553Z,22.52
2023-04-19T18:59:26.092Z,21.42
2023-04-19T19:01:57.218Z,26.92
2023-04-19T19:04:48.160Z,26.15
2023-04-19T19:12:43.218Z,28.20
2023-04-19T19:15:14.457Z,30.17
2023-04-19T19:17:41.997Z,34.60
2023-04-19T19:20:11.363Z,23.73
2023-04-19T19:22:49.147Z,23.17
2023-04-19T19:25:17.755Z,24.00
2023-04-19T19:28:35.717Z,21.95
2023-04-19T19:31:02.407Z,19.25
2023-04-19T19:33:34.539Z,16.98
2023-04-19T19:36:02.499Z,17.98
2023-04-19T19:38:33.047Z,14.70
2023-04-19T19:41:49.011Z,14.75
2023-04-19T19:44:01.259Z,16.63
2023-04-19T19:46:33.478Z,11.75
2023-04-19T19:49:12.966Z,10.70
2023-04-19T19:51:57.761Z,12.35
2023-04-19T19:54:55.745Z,12.55
2023-04-19T20:00:28.036Z,13.68
2023-04-19T20:03:06.470Z,10.52
2023-04-19T20:05:40.476Z,12.60
2023-04-19T20:08:12.742Z,10.77
2023-04-19T20:10:43.913Z,10.57
2023-04-19T20:13:17.128Z,10.52
2023-04-19T20:16:11.234Z,9.50
2023-04-19T20:18:51.651Z,9.95
2023-04-19T20:21:39.567Z,10.43
2023-04-19T20:24:13.820Z,8.07
2023-04-19T20:26:59.492Z,7.88
2023-04-19T20:30:01.157Z,7.07
2023-04-19T20:32:34.926Z,7.38
2023-04-19T20:35:25.420Z,6.75
2023-04-19T20:37:53.020Z,8.43
2023-04-19T20:40:23.607Z,5.80
2023-04-19T20:42:53.542Z,6.63
2023-04-19T20:45:21.483Z,10.93
2023-04-19T20:47:49.193Z,10.07
2023-04-19T20:50:16.649Z,8.77
2023-04-19T20:52:46.907Z,8.15
2023-04-19T20:55:15.470Z,9.00
2023-04-19T20:58:15.058Z,9.10
2023-04-19T21:00:53.186Z,7.75
2023-04-19T21:07:09.872Z,9.88
2023-04-19T21:09:46.518Z,7.97
2023-04-19T21:12:20.368Z,8.40
2023-04-19T21:17:34.276Z,8.13
2023-04-19T21:20:05.488Z,8.55
2023-04-19T21:22:33.092Z,8.45
2023-04-19T21:25:48.573Z,9.85
2023-04-19T21:28:27.272Z,9.38
2023-04-19T21:31:07.254Z,8.90
2023-04-19T21:33:45.579Z,11.82
2023-04-19T21:36:14.334Z,12.20
2023-04-19T21:38:45.000Z,11.98
2023-04-19T21:41:12.651Z,12.80
2023-04-19T21:43:46.562Z,11.10
2023-04-19T21:46:49.308Z,14.80
2023-04-19T21:49:53.440Z,14.65
2023-04-19T21:52:40.198Z,33.40
2023-04-19T21:55:24.036Z,31.35
2023-04-19T21:57:53.267Z,38.65
2023-04-19T22:00:33.561Z,58.92
2023-04-19T22:06:19.829Z,70.47
2023-04-19T22:09:14.054Z,42.22
2023-04-19T22:12:24.876Z,46.58
2023-04-19T22:15:07.698Z,32.15
2023-04-19T22:17:40.379Z,39.03
2023-04-19T22:20:26.337Z,33.38
2023-04-19T22:23:20.913Z,34.50
2023-04-19T22:26:05.128Z,33.13
2023-04-19T22:28:40.643Z,32.45
2023-04-19T22:31:25.980Z,32.15
2023-04-19T22:35:22.569Z,32.35
2023-04-19T22:36:52.842Z,33.33
2023-04-19T22:39:20.574Z,26.70
2023-04-19T22:42:27.916Z,32.58
2023-04-19T22:47:44.940Z,26.02
2023-04-19T22:50:39.909Z,27.50
2023-04-19T22:53:27.968Z,24.92
2023-04-19T22:56:52.250Z,19.17
2023-04-19T23:00:16.438Z,20.80
2023-04-19T23:02:53.116Z,23.65
2023-04-19T23:05:44.744Z,21.73
2023-04-19T23:09:52.852Z,22.23
2023-04-19T23:11:16.200Z,20.25
2023-04-19T23:14:20.644Z,17.98
2023-04-19T23:19:55.317Z,14.25
2023-04-19T23:22:28.148Z,14.40
2023-04-19T23:31:20.763Z,13.50
2023-04-19T23:34:01.941Z,12.45
2023-04-19T23:36:31.845Z,13.60
2023-04-19T23:39:02.651Z,13.73
2023-04-19T23:41:36.579Z,14.05
2023-04-19T23:44:05.459Z,12.90
2023-04-19T23:46:51.098Z,13.68
2023-04-19T23:49:45.052Z,13.77
2023-04-19T23:56:44.581Z,11.57
2023-04-19T23:59:43.705Z,10.88
